createdAt,value
2023-07-18T00:01:05.936Z,102117.84
2023-07-18T00:03:09.268Z,102111.66
2023-07-18T00:05:13.807Z,102121.47
2023-07-18T00:07:16.719Z,102116.19
2023-07-18T00:09:19.474Z,102122.44
2023-07-18T00:11:23.856Z,102124.22
2023-07-18T00:13:26.677Z,102124.28
2023-07-18T00:15:29.804Z,102129.63
2023-07-18T00:17:34.910Z,102128.78
2023-07-18T00:19:38.713Z,102125.28
2023-07-18T00:21:42.196Z,102129.69
2023-07-18T00:23:44.977Z,102124.41
2023-07-18T00:25:47.798Z,102116.53
2023-07-18T00:27:54.522Z,102124.44
2023-07-18T00:29:57.385Z,102120.97
2023-07-18T00:32:00.217Z,102120.13
2023-07-18T00:34:04.307Z,102112.19
2023-07-18T00:36:07.708Z,102114.84
2023-07-18T00:38:10.533Z,102113.09
2023-07-18T00:40:16.230Z,102106.91
2023-07-18T00:42:19.157Z,102109.59
2023-07-18T00:44:23.294Z,102103.44
2023-07-18T00:46:26.604Z,102102.59
2023-07-18T00:48:30.154Z,102106.19
2023-07-18T00:50:32.852Z,102101.84
2023-07-18T00:52:36.969Z,102101.06
2023-07-18T00:54:40.706Z,102109.03
2023-07-18T00:56:43.883Z,102109.09
2023-07-18T00:58:47.194Z,102102.06
2023-07-18T01:00:51.344Z,102103.84
2023-07-18T01:02:55.517Z,102102.06
2023-07-18T01:04:58.411Z,102101.19
2023-07-18T01:07:01.963Z,102100.34
2023-07-18T01:09:06.430Z,102098.59
2023-07-18T01:11:10.963Z,102095.06
2023-07-18T01:13:14.257Z,102097.72
2023-07-18T01:15:17.984Z,102095.09
2023-07-18T01:17:23.071Z,102102.22
2023-07-18T01:19:25.832Z,102103.13
2023-07-18T01:21:29.080Z,102095.22
2023-07-18T01:23:31.873Z,102097.84
2023-07-18T01:25:35.731Z,102092.53
2023-07-18T01:27:38.557Z,102096.13
2023-07-18T01:29:41.376Z,102092.59
2023-07-18T01:31:44.147Z,102096.16
2023-07-18T01:33:47.309Z,102096.22
2023-07-18T01:35:52.942Z,102093.63
2023-07-18T01:37:58.677Z,102090.09
2023-07-18T01:40:00.594Z,102091.03
2023-07-18T01:42:03.351Z,102083.97
2023-07-18T01:44:06.568Z,102083.16
2023-07-18T01:46:09.315Z,102084.06
2023-07-18T01:48:12.268Z,102084.94
2023-07-18T01:50:14.834Z,102077.88
2023-07-18T01:52:17.626Z,102077.91
2023-07-18T01:54:21.759Z,102072.56
2023-07-18T01:56:24.844Z,102071.75
2023-07-18T01:58:27.680Z,102071.78
2023-07-18T02:00:32.224Z,102072.72
2023-07-18T02:02:34.081Z,102066.59
2023-07-18T02:04:36.854Z,102071.91
2023-07-18T02:06:39.602Z,102069.28
2023-07-18T02:08:42.332Z,102067.53
2023-07-18T02:10:46.446Z,102080.81
2023-07-18T02:12:48.503Z,102080.81
2023-07-18T02:14:51.334Z,102079.06
2023-07-18T02:16:54.302Z,102078.16
2023-07-18T02:18:58.314Z,102083.50
2023-07-18T02:21:01.147Z,102078.19
2023-07-18T02:23:03.034Z,102068.50
2023-07-18T02:25:06.976Z,102069.34
2023-07-18T02:27:11.121Z,102072.00
2023-07-18T02:29:14.289Z,102075.56
2023-07-18T02:31:17.152Z,102069.41
2023-07-18T02:33:19.972Z,102065.84
2023-07-18T02:35:23.103Z,102066.78
2023-07-18T02:37:27.249Z,102068.59
2023-07-18T02:39:31.509Z,102076.56
2023-07-18T02:41:34.335Z,102071.28
2023-07-18T02:43:38.459Z,102076.66
2023-07-18T02:45:42.532Z,102076.69
2023-07-18T02:47:45.330Z,102077.59
2023-07-18T02:49:48.094Z,102071.44
2023-07-18T02:51:50.860Z,102074.13
2023-07-18T02:53:54.516Z,102076.75
2023-07-18T02:55:57.274Z,102078.56
2023-07-18T02:57:59.064Z,102072.44
2023-07-18T03:00:04.391Z,102081.31
2023-07-18T03:02:07.801Z,102077.78
2023-07-18T03:04:10.649Z,102079.56
2023-07-18T03:06:13.415Z,102079.59
2023-07-18T03:08:16.216Z,102080.47
2023-07-18T03:10:19.027Z,102076.94
2023-07-18T03:12:22.427Z,102083.13
2023-07-18T03:14:25.255Z,102078.69
2023-07-18T03:16:29.403Z,102076.91
2023-07-18T03:18:32.469Z,102074.25
2023-07-18T03:20:35.391Z,102078.66
2023-07-18T03:22:38.213Z,102082.19
2023-07-18T03:24:41.811Z,102077.78
2023-07-18T03:26:44.559Z,102083.03
2023-07-18T03:28:47.557Z,102091.88
2023-07-18T03:30:50.302Z,102092.78
2023-07-18T03:32:55.266Z,102088.38
2023-07-18T03:34:57.059Z,102094.53
2023-07-18T03:36:59.832Z,102097.16
2023-07-18T03:39:02.616Z,102093.59
2023-07-18T03:41:04.445Z,102097.97
2023-07-18T03:43:07.226Z,102094.44
2023-07-18T03:45:14.131Z,102091.72
2023-07-18T03:47:21.267Z,102094.34
2023-07-18T03:49:25.793Z,102095.22
2023-07-18T03:51:29.723Z,102099.63
2023-07-18T03:53:34.944Z,102096.06
2023-07-18T03:55:37.779Z,102099.53
2023-07-18T03:57:41.153Z,102097.72
2023-07-18T03:59:44.150Z,102100.28
2023-07-18T04:01:47.251Z,102094.06
2023-07-18T04:03:50.255Z,102091.38
2023-07-18T04:05:54.434Z,102095.75
2023-07-18T04:07:57.285Z,102092.16
2023-07-18T04:10:00.318Z,102095.66
2023-07-18T04:12:03.174Z,102093.84
2023-07-18T04:14:06.122Z,102094.72
2023-07-18T04:16:08.916Z,102091.16
2023-07-18T04:18:11.673Z,102099.97
2023-07-18T04:20:15.201Z,102094.66
2023-07-18T04:22:19.321Z,102105.22
2023-07-18T04:24:22.567Z,102098.97
2023-07-18T04:26:25.345Z,102098.97
2023-07-18T04:28:28.981Z,102098.94
2023-07-18T04:30:31.730Z,102098.00
2023-07-18T04:32:35.088Z,102092.63
2023-07-18T04:34:37.921Z,102085.41
2023-07-18T04:36:40.751Z,102090.59
2023-07-18T04:38:45.214Z,102085.19
2023-07-18T04:40:47.985Z,102083.38
2023-07-18T04:42:50.718Z,102083.38
2023-07-18T04:44:53.581Z,102082.44
2023-07-18T04:46:56.407Z,102083.25
2023-07-18T04:48:59.467Z,102076.09
2023-07-18T04:51:03.904Z,102085.75
2023-07-18T04:53:06.849Z,102076.84
2023-07-18T04:55:11.562Z,102072.38
2023-07-18T04:57:14.355Z,102077.59
2023-07-18T04:59:17.145Z,102075.78
2023-07-18T05:01:20.062Z,102084.50
2023-07-18T05:03:23.095Z,102088.84
2023-07-18T05:05:26.255Z,102086.16
2023-07-18T05:07:29.027Z,102082.59
2023-07-18T05:09:31.826Z,102086.16
2023-07-18T05:11:35.974Z,102085.25
2023-07-18T05:13:38.771Z,102094.13
2023-07-18T05:15:43.825Z,102090.56
2023-07-18T05:17:47.437Z,102097.69
2023-07-18T05:19:50.264Z,102099.47
2023-07-18T05:21:53.074Z,102097.69
2023-07-18T05:23:55.942Z,102098.47
2023-07-18T05:25:59.157Z,102096.53
2023-07-18T05:28:03.277Z,102101.63
2023-07-18T05:30:08.111Z,102098.75
2023-07-18T05:32:10.884Z,102102.25
2023-07-18T05:34:13.784Z,102104.88
2023-07-18T05:36:17.454Z,102103.06
2023-07-18T05:38:20.348Z,102106.44
2023-07-18T05:40:23.193Z,102110.63
2023-07-18T05:42:25.984Z,102106.84
2023-07-18T05:44:29.140Z,102100.41
2023-07-18T05:46:31.966Z,102106.47
2023-07-18T05:48:34.873Z,102107.19
2023-07-18T05:50:37.680Z,102115.94
2023-07-18T05:52:40.601Z,102115.75
2023-07-18T05:54:43.422Z,102119.16
2023-07-18T05:56:45.214Z,102112.84
2023-07-18T05:58:48.570Z,102115.34
2023-07-18T06:00:52.737Z,102114.31
2023-07-18T06:02:58.355Z,102108.94
2023-07-18T06:05:00.782Z,102109.03
2023-07-18T06:07:03.533Z,102108.94
2023-07-18T06:09:06.333Z,102107.16
2023-07-18T06:11:09.104Z,102107.91
2023-07-18T06:13:12.890Z,102110.47
2023-07-18T06:15:15.736Z,102108.59
2023-07-18T06:17:19.870Z,102104.06
2023-07-18T06:19:22.901Z,102102.91
2023-07-18T06:21:28.069Z,102099.09
2023-07-18T06:23:31.272Z,102109.69
2023-07-18T06:25:34.050Z,102100.81
2023-07-18T06:27:36.826Z,102107.97
2023-07-18T06:29:39.589Z,102109.75
2023-07-18T06:31:43.200Z,102111.41
2023-07-18T06:33:47.611Z,102111.28
2023-07-18T06:35:53.741Z,102113.69
2023-07-18T06:37:55.490Z,102113.38
2023-07-18T06:39:58.244Z,102113.91
2023-07-18T06:42:01.046Z,102112.97
2023-07-18T06:44:05.707Z,102111.94
2023-07-18T06:46:10.155Z,102109.19
2023-07-18T06:48:13.229Z,102107.22
2023-07-18T06:50:17.572Z,102106.28
2023-07-18T06:52:20.346Z,102109.53
2023-07-18T06:54:23.099Z,102106.66
2023-07-18T06:56:26.022Z,102110.06
2023-07-18T06:58:27.839Z,102109.03
2023-07-18T07:00:30.617Z,102101.75
2023-07-18T07:02:33.528Z,102113.16
2023-07-18T07:04:37.934Z,102105.81
2023-07-18T07:06:43.633Z,102105.59
2023-07-18T07:08:46.518Z,102100.06
2023-07-18T07:10:49.307Z,102099.91
2023-07-18T07:12:52.105Z,102098.84
2023-07-18T07:14:54.872Z,102105.78
2023-07-18T07:16:58.331Z,102101.16
2023-07-18T07:19:01.137Z,102097.47
2023-07-18T07:21:04.064Z,102099.84
2023-07-18T07:23:08.260Z,102097.72
2023-07-18T07:25:11.175Z,102101.63
2023-07-18T07:27:14.719Z,102102.00
2023-07-18T07:29:19.389Z,102092.53
2023-07-18T07:31:22.739Z,102098.16
2023-07-18T07:33:27.178Z,102103.13
2023-07-18T07:35:31.054Z,102099.44
2023-07-18T07:37:32.858Z,102101.19
2023-07-18T07:39:37.113Z,102092.19
2023-07-18T07:41:39.906Z,102097.13
2023-07-18T07:43:42.799Z,102095.75
2023-07-18T07:45:45.557Z,102091.78
2023-07-18T07:47:48.355Z,102089.63
2023-07-18T07:49:51.612Z,102090.31
2023-07-18T07:51:54.415Z,102098.28
2023-07-18T07:53:57.716Z,102092.88
2023-07-18T07:56:00.878Z,102093.06
2023-07-18T07:58:03.683Z,102095.72
2023-07-18T08:00:08.343Z,102096.28
2023-07-18T08:02:11.608Z,102103.19
2023-07-18T08:04:14.439Z,102091.31
2023-07-18T08:06:17.264Z,102087.56
2023-07-18T08:08:20.122Z,102083.91
2023-07-18T08:10:22.974Z,102090.06
2023-07-18T08:12:28.013Z,102088.19
2023-07-18T08:14:30.796Z,102083.03
2023-07-18T08:16:33.622Z,102084.97
2023-07-18T08:18:37.475Z,102084.69
2023-07-18T08:20:40.301Z,102080.06
2023-07-18T08:22:42.137Z,102077.16
2023-07-18T08:24:44.986Z,102084.13
2023-07-18T08:26:47.797Z,102074.22
2023-07-18T08:28:51.957Z,102073.88
2023-07-18T08:30:54.709Z,102070.88
2023-07-18T08:32:57.591Z,102069.47
2023-07-18T08:35:00.503Z,102066.47
2023-07-18T08:37:03.772Z,102060.91
2023-07-18T08:39:11.823Z,102065.19
2023-07-18T08:41:15.762Z,102063.97
2023-07-18T08:43:19.435Z,102061.25
2023-07-18T08:45:25.113Z,102059.78
2023-07-18T08:47:28.511Z,102055.09
2023-07-18T08:49:35.181Z,102058.00
2023-07-18T08:51:39.149Z,102053.09
2023-07-18T08:53:42.431Z,102052.34
2023-07-18T08:55:46.526Z,102047.44
2023-07-18T08:57:51.989Z,102050.09
2023-07-18T08:59:56.122Z,102047.88
2023-07-18T09:02:00.338Z,102042.16
2023-07-18T09:04:03.456Z,102039.53
2023-07-18T09:06:18.309Z,102043.97
2023-07-18T09:08:21.114Z,102044.53
2023-07-18T09:10:24.044Z,102037.66
2023-07-18T09:12:29.042Z,102040.38
2023-07-18T09:14:33.483Z,102038.72
2023-07-18T09:16:36.252Z,102034.41
2023-07-18T09:18:40.075Z,102035.69
2023-07-18T09:20:42.878Z,102030.09
2023-07-18T09:22:45.653Z,102028.69
2023-07-18T09:24:49.731Z,102027.25
2023-07-18T09:26:53.204Z,102030.19
2023-07-18T09:28:57.004Z,102028.19
2023-07-18T09:30:59.756Z,102029.22
2023-07-18T09:33:05.071Z,102027.88
2023-07-18T09:35:12.597Z,102025.38
2023-07-18T09:37:15.384Z,102031.91
2023-07-18T09:39:17.201Z,102031.66
2023-07-18T09:41:21.674Z,102030.56
2023-07-18T09:43:26.265Z,102030.09
2023-07-18T09:45:31.317Z,102029.16
2023-07-18T09:47:35.276Z,102022.44
2023-07-18T09:49:41.092Z,102027.50
2023-07-18T09:51:50.204Z,102024.28
2023-07-18T09:53:57.527Z,102013.66
2023-07-18T09:56:02.570Z,102015.78
2023-07-18T09:58:05.525Z,102010.16
2023-07-18T10:00:13.037Z,102012.59
2023-07-18T10:02:16.963Z,102012.25
2023-07-18T10:04:21.056Z,102015.03
2023-07-18T10:06:24.029Z,102006.94
2023-07-18T10:08:28.762Z,102010.34
2023-07-18T10:10:32.746Z,102015.28
2023-07-18T10:12:36.996Z,102009.63
2023-07-18T10:14:57.789Z,102000.53
2023-07-18T10:17:07.514Z,102002.72
2023-07-18T10:19:18.771Z,102002.13
2023-07-18T10:21:32.542Z,101999.25
2023-07-18T10:23:43.889Z,102011.28
2023-07-18T10:25:57.313Z,102004.47
2023-07-18T10:28:01.950Z,101992.25
2023-07-18T10:30:05.971Z,101993.03
2023-07-18T10:32:11.847Z,101990.97
2023-07-18T10:34:16.470Z,101989.84
2023-07-18T10:36:26.268Z,101987.56
2023-07-18T10:38:36.880Z,101988.91
2023-07-18T10:40:44.435Z,101979.78
2023-07-18T10:42:47.275Z,101974.69
2023-07-18T10:44:49.576Z,101973.44
2023-07-18T10:46:52.421Z,101975.28
2023-07-18T10:48:55.188Z,101973.91
2023-07-18T10:50:58.327Z,101972.88
2023-07-18T10:53:00.144Z,101965.56
2023-07-18T10:55:05.248Z,101960.19
2023-07-18T10:57:10.558Z,101962.00
2023-07-18T10:59:14.983Z,101953.69
2023-07-18T11:01:18.808Z,101950.50
2023-07-18T11:03:23.143Z,101947.78
2023-07-18T11:05:27.315Z,101948.34
2023-07-18T11:07:36.307Z,101940.25
2023-07-18T11:09:38.498Z,101944.38
2023-07-18T11:11:41.946Z,101940.41
2023-07-18T11:13:46.936Z,101933.38
2023-07-18T11:15:49.754Z,101944.97
2023-07-18T11:17:54.744Z,101931.91
2023-07-18T11:19:58.762Z,101927.56
2023-07-18T11:22:01.599Z,101932.66
2023-07-18T11:24:04.926Z,101927.66
2023-07-18T11:26:14.985Z,101924.56
2023-07-18T11:28:17.759Z,101922.66
2023-07-18T11:30:24.712Z,101918.41
2023-07-18T11:32:36.853Z,101917.75
2023-07-18T11:34:42.148Z,101913.19
2023-07-18T11:36:44.938Z,101917.09
2023-07-18T11:38:50.558Z,101912.06
2023-07-18T11:40:53.544Z,101907.97
2023-07-18T11:42:59.195Z,101899.31
2023-07-18T11:45:02.121Z,101899.53
2023-07-18T11:47:12.221Z,101902.31
2023-07-18T11:49:16.254Z,101898.94
2023-07-18T11:51:19.293Z,101898.78
2023-07-18T11:53:28.413Z,101893.84
2023-07-18T11:55:31.889Z,101895.38
2023-07-18T11:57:34.755Z,101895.63
2023-07-18T11:59:38.223Z,101896.41
2023-07-18T12:01:41.016Z,101901.94
2023-07-18T12:03:45.269Z,101904.94
2023-07-18T12:05:48.208Z,101905.28
2023-07-18T12:07:50.118Z,101910.44
2023-07-18T12:09:52.870Z,101911.78
2023-07-18T12:11:56.301Z,101909.72
2023-07-18T12:13:59.450Z,101918.31
2023-07-18T12:16:02.255Z,101920.03
2023-07-18T12:18:05.396Z,101921.59
2023-07-18T12:20:11.293Z,101916.81
2023-07-18T12:22:14.405Z,101911.91
2023-07-18T12:24:17.312Z,101913.56
2023-07-18T12:26:20.090Z,101925.75
2023-07-18T12:28:22.893Z,101922.91
2023-07-18T12:30:25.680Z,101922.13
2023-07-18T12:32:31.558Z,101905.53
2023-07-18T12:34:35.199Z,101903.16
2023-07-18T12:36:39.680Z,101903.69
2023-07-18T12:38:42.443Z,101892.59
2023-07-18T12:40:45.372Z,101889.56
2023-07-18T12:42:48.313Z,101895.47
2023-07-18T12:44:51.312Z,101886.06
2023-07-18T12:46:54.255Z,101883.25
2023-07-18T12:51:04.628Z,101870.06
2023-07-18T12:53:08.790Z,101874.91
2023-07-18T12:55:12.272Z,101861.44
2023-07-18T12:57:15.099Z,101858.84
2023-07-18T12:59:17.884Z,101856.97
2023-07-18T13:01:20.712Z,101851.75
2023-07-18T13:03:23.637Z,101841.53
2023-07-18T13:05:26.497Z,101833.16
2023-07-18T13:07:29.305Z,101845.56
2023-07-18T13:09:33.489Z,101844.59
2023-07-18T13:11:36.728Z,101842.09
2023-07-18T13:13:39.593Z,101834.13
2023-07-18T13:15:42.444Z,101840.94
2023-07-18T13:17:45.314Z,101837.31
2023-07-18T13:19:48.085Z,101835.09
2023-07-18T13:21:50.880Z,101834.81
2023-07-18T13:23:53.861Z,101833.47
2023-07-18T13:25:58.018Z,101823.28
2023-07-18T13:28:00.816Z,101815.69
2023-07-18T13:30:03.648Z,101811.94
2023-07-18T13:32:08.260Z,101809.06
2023-07-18T13:34:13.326Z,101814.16
2023-07-18T13:36:17.471Z,101803.97
2023-07-18T13:38:20.513Z,101803.78
2023-07-18T13:40:23.412Z,101798.09
2023-07-18T13:42:28.425Z,101798.31
2023-07-18T13:44:31.226Z,101793.22
2023-07-18T13:46:34.060Z,101800.41
2023-07-18T13:48:36.087Z,101803.59
2023-07-18T13:50:39.353Z,101794.84
2023-07-18T13:52:42.217Z,101796.28
2023-07-18T13:54:45.072Z,101795.13
2023-07-18T13:56:47.873Z,101806.66
2023-07-18T13:58:52.012Z,101806.19
2023-07-18T14:00:54.864Z,101803.09
2023-07-18T14:02:59.160Z,101794.94
2023-07-18T14:05:02.026Z,101797.72
2023-07-18T14:07:05.292Z,101792.91
2023-07-18T14:09:08.078Z,101797.53
2023-07-18T14:11:10.930Z,101793.59
2023-07-18T14:13:13.720Z,101786.88
2023-07-18T14:15:18.420Z,101789.28
2023-07-18T14:17:20.290Z,101793.50
2023-07-18T14:19:23.469Z,101789.66
2023-07-18T14:21:25.816Z,101791.28
2023-07-18T14:23:28.657Z,101784.94
2023-07-18T14:25:30.510Z,101781.69
2023-07-18T14:27:33.296Z,101786.00
2023-07-18T14:29:36.073Z,101787.25
2023-07-18T14:31:40.314Z,101790.22
2023-07-18T14:33:55.194Z,101783.38
2023-07-18T14:36:02.928Z,101786.16
2023-07-18T14:38:05.715Z,101774.09
2023-07-18T14:40:09.836Z,101776.97
2023-07-18T14:42:12.740Z,101769.84
2023-07-18T14:44:15.549Z,101769.94
2023-07-18T14:46:18.868Z,101765.94
2023-07-18T14:48:23.896Z,101765.72
2023-07-18T14:50:26.902Z,101762.94
2023-07-18T14:52:29.817Z,101763.59
2023-07-18T14:54:32.568Z,101761.78
2023-07-18T14:56:38.264Z,101757.75
2023-07-18T14:58:41.145Z,101754.75
2023-07-18T15:00:45.122Z,101748.41
2023-07-18T15:02:49.170Z,101749.59
2023-07-18T15:04:53.641Z,101749.47
2023-07-18T15:06:56.818Z,101749.28
2023-07-18T15:08:59.962Z,101753.69
2023-07-18T15:11:02.886Z,101749.19
2023-07-18T15:13:05.750Z,101747.09
2023-07-18T15:15:10.337Z,101739.31
2023-07-18T15:17:14.041Z,101735.72
2023-07-18T15:19:16.821Z,101733.03
2023-07-18T15:21:21.167Z,101729.41
2023-07-18T15:23:23.928Z,101729.00
2023-07-18T15:25:26.947Z,101722.28
2023-07-18T15:27:28.793Z,101734.69
2023-07-18T15:29:31.563Z,101726.03
2023-07-18T15:31:34.429Z,101730.03
2023-07-18T15:33:37.720Z,101718.34
2023-07-18T15:35:41.747Z,101728.72
2023-07-18T15:37:45.942Z,101725.06
2023-07-18T15:39:48.844Z,101717.59
2023-07-18T15:41:51.610Z,101710.13
2023-07-18T15:43:55.182Z,101712.81
2023-07-18T15:45:58.207Z,101706.66
2023-07-18T15:48:01.082Z,101713.09
2023-07-18T15:50:03.931Z,101708.78
2023-07-18T15:52:09.729Z,101714.31
2023-07-18T15:54:14.030Z,101703.56
2023-07-18T15:56:17.863Z,101705.75
2023-07-18T15:58:20.981Z,101705.06
2023-07-18T16:00:23.930Z,101707.16
2023-07-18T16:02:26.854Z,101701.22
2023-07-18T16:04:29.751Z,101696.03
2023-07-18T16:06:32.540Z,101695.25
2023-07-18T16:08:36.654Z,101706.22
2023-07-18T16:10:39.941Z,101705.53
2023-07-18T16:12:43.525Z,101705.22
2023-07-18T16:14:46.919Z,101700.78
2023-07-18T16:16:50.118Z,101696.66
2023-07-18T16:18:54.586Z,101694.25
2023-07-18T16:20:57.426Z,101685.50
2023-07-18T16:23:00.438Z,101687.31
2023-07-18T16:25:08.685Z,101691.25
2023-07-18T16:27:12.866Z,101694.13
2023-07-18T16:29:15.690Z,101696.91
2023-07-18T16:31:20.377Z,101685.47
2023-07-18T16:33:23.512Z,101697.34
2023-07-18T16:35:26.470Z,101693.31
2023-07-18T16:37:29.257Z,101691.81
2023-07-18T16:39:33.038Z,101693.03
2023-07-18T16:41:35.922Z,101690.59
2023-07-18T16:43:40.066Z,101691.84
2023-07-18T16:45:44.634Z,101695.28
2023-07-18T16:47:46.458Z,101704.56
2023-07-18T16:49:49.388Z,101712.81
2023-07-18T16:51:52.248Z,101713.06
2023-07-18T16:53:55.196Z,101713.53
2023-07-18T16:55:58.031Z,101706.41
2023-07-18T16:58:00.935Z,101705.88
2023-07-18T17:00:06.689Z,101705.28
2023-07-18T17:02:09.532Z,101697.66
2023-07-18T17:04:12.400Z,101705.97
2023-07-18T17:06:15.470Z,101711.59
2023-07-18T17:08:20.727Z,101702.00
2023-07-18T17:10:23.772Z,101709.09
2023-07-18T17:12:26.536Z,101703.72
2023-07-18T17:14:29.343Z,101700.25
2023-07-18T17:16:33.570Z,101701.91
2023-07-18T17:18:36.692Z,101701.91
2023-07-18T17:20:39.482Z,101700.97
2023-07-18T17:22:42.487Z,101704.41
2023-07-18T17:24:45.356Z,101699.91
2023-07-18T17:26:49.865Z,101694.63
2023-07-18T17:28:52.750Z,101694.56
2023-07-18T17:30:55.582Z,101684.88
2023-07-18T17:33:00.095Z,101678.63
2023-07-18T17:35:03.505Z,101687.63
2023-07-18T17:37:07.687Z,101689.53
2023-07-18T17:39:10.636Z,101681.66
2023-07-18T17:41:12.569Z,101685.56
2023-07-18T17:43:15.357Z,101686.81
2023-07-18T17:45:18.191Z,101683.50
2023-07-18T17:47:21.108Z,101686.34
2023-07-18T17:49:25.387Z,101683.13
2023-07-18T17:51:28.449Z,101685.13
2023-07-18T17:53:31.673Z,101678.03
2023-07-18T17:55:34.800Z,101673.72
2023-07-18T17:57:38.239Z,101672.06
2023-07-18T17:59:42.802Z,101674.13
2023-07-18T18:01:45.586Z,101678.78
2023-07-18T18:03:49.424Z,101676.38
2023-07-18T18:05:53.761Z,101671.25
2023-07-18T18:07:55.541Z,101673.28
2023-07-18T18:09:58.298Z,101673.53
2023-07-18T18:12:01.198Z,101679.22
2023-07-18T18:14:04.069Z,101665.03
2023-07-18T18:16:09.184Z,101665.13
2023-07-18T18:18:12.543Z,101659.94
2023-07-18T18:20:15.430Z,101655.69
2023-07-18T18:22:19.985Z,101653.19
2023-07-18T18:24:21.797Z,101645.13
2023-07-18T18:26:25.457Z,101650.66
2023-07-18T18:28:28.313Z,101647.97
2023-07-18T18:30:31.345Z,101652.63
2023-07-18T18:32:34.230Z,101653.59
2023-07-18T18:34:37.042Z,101648.38
2023-07-18T18:36:40.127Z,101653.97
2023-07-18T18:38:44.458Z,101640.63
2023-07-18T18:40:47.281Z,101640.78
2023-07-18T18:42:50.059Z,101648.81
2023-07-18T18:44:52.837Z,101644.56
2023-07-18T18:46:55.630Z,101648.09
2023-07-18T18:49:01.573Z,101644.03
2023-07-18T18:51:06.630Z,101645.91
2023-07-18T18:53:09.598Z,101654.88
2023-07-18T18:55:19.924Z,101652.28
2023-07-18T18:57:23.780Z,101649.84
2023-07-18T18:59:27.448Z,101649.06
2023-07-18T19:01:30.362Z,101643.94
2023-07-18T19:03:33.278Z,101645.06
2023-07-18T19:05:36.126Z,101643.47
2023-07-18T19:07:39.443Z,101646.25
2023-07-18T19:09:42.357Z,101641.94
2023-07-18T19:11:47.693Z,101653.69
2023-07-18T19:13:50.470Z,101643.13
2023-07-18T19:15:52.342Z,101646.03
2023-07-18T19:17:55.413Z,101637.38
2023-07-18T19:19:58.321Z,101634.00
2023-07-18T19:22:01.098Z,101639.50
2023-07-18T19:24:03.860Z,101645.00
2023-07-18T19:26:06.761Z,101649.78
2023-07-18T19:28:09.928Z,101645.53
2023-07-18T19:30:14.686Z,101643.97
2023-07-18T19:32:17.834Z,101650.41
2023-07-18T19:34:20.739Z,101643.56
2023-07-18T19:36:22.621Z,101640.09
2023-07-18T19:38:25.552Z,101644.72
2023-07-18T19:40:28.447Z,101644.88
2023-07-18T19:42:31.208Z,101647.84
2023-07-18T19:44:36.299Z,101645.38
2023-07-18T19:46:39.139Z,101649.16
2023-07-18T19:48:41.955Z,101651.19
2023-07-18T19:50:44.758Z,101648.78
2023-07-18T19:52:47.539Z,101649.13
2023-07-18T19:54:50.310Z,101645.88
2023-07-18T19:56:53.259Z,101649.63
2023-07-18T19:58:56.071Z,101642.69
2023-07-18T20:01:00.352Z,101633.03
2023-07-18T20:03:03.573Z,101626.94
2023-07-18T20:05:07.151Z,101628.03
2023-07-18T20:07:10.017Z,101636.19
2023-07-18T20:09:12.846Z,101631.84
2023-07-18T20:11:14.684Z,101628.44
2023-07-18T20:13:17.563Z,101623.22
2023-07-18T20:15:20.337Z,101627.97
2023-07-18T20:17:24.669Z,101619.28
2023-07-18T20:19:28.190Z,101617.59
2023-07-18T20:21:31.309Z,101610.59
2023-07-18T20:23:34.180Z,101609.75
2023-07-18T20:25:37.146Z,101625.81
2023-07-18T20:27:39.924Z,101611.69
2023-07-18T20:29:44.335Z,101616.16
2023-07-18T20:31:47.253Z,101613.47
2023-07-18T20:33:52.478Z,101604.69
2023-07-18T20:35:55.982Z,101609.22
2023-07-18T20:37:59.593Z,101599.47
2023-07-18T20:40:05.463Z,101599.63
2023-07-18T20:42:08.530Z,101600.56
2023-07-18T20:44:11.334Z,101601.50
2023-07-18T20:46:14.660Z,101606.81
2023-07-18T20:48:17.578Z,101599.75
2023-07-18T20:50:22.171Z,101605.16
2023-07-18T20:52:25.171Z,101598.88
2023-07-18T20:54:29.853Z,101599.81
2023-07-18T20:56:32.688Z,101604.38
2023-07-18T20:58:35.457Z,101598.16
2023-07-18T21:00:38.379Z,101600.91
2023-07-18T21:02:41.213Z,101596.50
2023-07-18T21:04:44.118Z,101603.75
2023-07-18T21:06:48.262Z,101599.41
2023-07-18T21:08:51.591Z,101596.88
2023-07-18T21:10:53.364Z,101592.53
2023-07-18T21:12:56.124Z,101594.34
2023-07-18T21:14:58.913Z,101592.59
2023-07-18T21:17:02.157Z,101594.34
2023-07-18T21:19:05.036Z,101591.72
2023-07-18T21:21:07.807Z,101593.53
2023-07-18T21:23:12.054Z,101594.41
2023-07-18T21:25:14.911Z,101596.13
2023-07-18T21:27:17.769Z,101596.22
2023-07-18T21:29:20.578Z,101594.47
2023-07-18T21:31:23.467Z,101599.88
2023-07-18T21:33:26.779Z,101597.28
2023-07-18T21:35:29.589Z,101598.22
2023-07-18T21:37:32.364Z,101591.06
2023-07-18T21:39:36.715Z,101586.66
2023-07-18T21:41:39.484Z,101586.66
2023-07-18T21:43:42.249Z,101579.59
2023-07-18T21:45:45.116Z,101588.47
2023-07-18T21:47:47.993Z,101585.88
2023-07-18T21:49:50.847Z,101586.81
2023-07-18T21:51:53.658Z,101590.41
2023-07-18T21:53:55.517Z,101585.19
2023-07-18T21:56:02.259Z,101588.81
2023-07-18T21:58:06.363Z,101589.81
2023-07-18T22:00:09.855Z,101591.69
2023-07-18T22:02:12.923Z,101594.53
2023-07-18T22:04:15.729Z,101589.34
2023-07-18T22:06:18.511Z,101583.13
2023-07-18T22:08:21.285Z,101576.94
2023-07-18T22:10:24.072Z,101574.28
2023-07-18T22:12:28.210Z,101575.19
2023-07-18T22:14:30.979Z,101577.88
2023-07-18T22:16:33.828Z,101580.53
2023-07-18T22:18:37.005Z,101574.34
2023-07-18T22:20:39.789Z,101578.81
2023-07-18T22:22:42.617Z,101585.13
2023-07-18T22:24:45.502Z,101579.91
2023-07-18T22:26:48.290Z,101570.97
2023-07-18T22:28:52.431Z,101575.38
2023-07-18T22:30:55.548Z,101565.63
2023-07-18T22:32:58.484Z,101554.16
2023-07-18T22:35:01.306Z,101550.63
2023-07-18T22:37:04.153Z,101548.84
2023-07-18T22:39:07.493Z,101541.69
2023-07-18T22:41:11.223Z,101540.81
2023-07-18T22:43:13.001Z,101539.91
2023-07-18T22:45:17.296Z,101532.75
2023-07-18T22:47:20.766Z,101538.97
2023-07-18T22:49:26.238Z,101536.28
2023-07-18T22:51:29.566Z,101536.28
2023-07-18T22:53:34.109Z,101543.34
2023-07-18T22:55:36.869Z,101543.44
2023-07-18T22:57:39.689Z,101557.63
2023-07-18T22:59:41.521Z,101553.31
2023-07-18T23:01:45.675Z,101551.56
2023-07-18T23:03:48.647Z,101555.22
2023-07-18T23:05:51.471Z,101557.97
2023-07-18T23:07:54.294Z,101553.56
2023-07-18T23:09:57.168Z,101559.81
2023-07-18T23:11:59.992Z,101562.50
2023-07-18T23:14:02.764Z,101557.16
2023-07-18T23:16:06.054Z,101552.63
2023-07-18T23:18:10.251Z,101550.03
2023-07-18T23:20:14.058Z,101550.97
2023-07-18T23:22:16.838Z,101540.28
2023-07-18T23:24:19.612Z,101545.69
2023-07-18T23:26:22.642Z,101542.16
2023-07-18T23:28:25.482Z,101540.44
2023-07-18T23:30:27.334Z,101541.44
2023-07-18T23:32:30.151Z,101539.75